Time;durP1;ratioP1;P1;durP2;ratioP2;P2;SDS_P1;SDS_P2;PMS_P1;PMS_P2;Temp;Humidity;BMP_temperature;BMP_pressure;BME280_temperature;BME280_humidity;BME280_pressure;Samples;Min_cycle;Max_cycle;Signal;HPM_P1;HPM_P2
2023/12/06 00:01:34;;;;;;;9.27;7.57;;;;;;;8.48;64.33;100989.31;5029452;28;20124;-56
2023/12/06 00:04:00;;;;;;;11.50;8.02;;;;;;;8.47;64.56;100990.25;5027808;28;20037;-57
2023/12/06 00:06:25;;;;;;;10.90;7.13;;;;;;;8.49;64.50;100991.06;5029923;28;20065;-56
2023/12/06 00:08:52;;;;;;;10.10;7.50;;;;;;;8.47;64.63;100982.28;5033031;28;20056;-57
2023/12/06 00:11:19;;;;;;;10.07;7.10;;;;;;;8.47;64.44;100987.59;5032925;28;20037;-57
2023/12/06 00:13:44;;;;;;;11.20;7.80;;;;;;;8.47;64.54;100992.91;5032577;28;20033;-57
2023/12/06 00:16:09;;;;;;;10.25;7.15;;;;;;;8.48;64.45;100997.28;5030464;28;20037;-56
2023/12/06 00:18:34;;;;;;;10.15;7.68;;;;;;;8.49;64.56;100992.81;5031687;28;20037;-56
2023/12/06 00:21:00;;;;;;;9.43;7.47;;;;;;;8.48;64.43;100994.63;5029721;28;20044;-56
2023/12/06 00:23:25;;;;;;;12.30;8.43;;;;;;;8.49;64.47;100993.72;5046860;28;20037;-56
2023/12/06 00:25:50;;;;;;;11.50;7.60;;;;;;;8.50;64.56;101006.03;5032834;28;20032;-56
2023/12/06 00:28:16;;;;;;;9.75;7.60;;;;;;;8.49;64.40;101004.31;5029774;28;20503;-57
2023/12/06 00:30:41;;;;;;;11.30;7.25;;;;;;;8.49;64.46;100999.03;5032422;28;20029;-56
2023/12/06 00:33:07;;;;;;;11.05;7.60;;;;;;;8.51;64.11;101009.53;5048132;28;20475;-56
2023/12/06 00:35:32;;;;;;;11.10;7.07;;;;;;;8.51;64.47;101014.84;5032327;28;20025;-56
2023/12/06 00:37:57;;;;;;;11.15;7.95;;;;;;;8.50;64.43;101013.13;5026523;28;20034;-57
2023/12/06 00:40:22;;;;;;;11.13;7.80;;;;;;;8.50;64.41;101018.44;5028267;28;20032;-56
2023/12/06 00:42:48;;;;;;;10.82;7.20;;;;;;;8.51;64.47;101023.69;5029966;28;20026;-56
2023/12/06 00:45:13;;;;;;;11.43;7.22;;;;;;;8.51;64.47;101025.44;5025312;28;20150;-56
2023/12/06 00:47:39;;;;;;;9.93;6.57;;;;;;;8.51;64.37;101028.09;5031691;28;20034;-56
2023/12/06 00:50:06;;;;;;;11.48;7.15;;;;;;;8.51;64.29;101028.09;5031029;28;20029;-56
2023/12/06 00:52:31;;;;;;;10.32;7.03;;;;;;;8.51;64.56;101033.41;5031369;28;20041;-56
2023/12/06 00:54:56;;;;;;;10.82;7.65;;;;;;;8.52;64.36;101040.44;5028691;28;20029;-56
2023/12/06 00:57:22;;;;;;;11.57;7.88;;;;;;;8.52;64.34;101043.09;5031975;28;20040;-56
2023/12/06 00:59:48;;;;;;;10.48;7.45;;;;;;;8.52;64.42;101040.44;5028361;28;20376;-56
2023/12/06 01:02:13;;;;;;;10.15;7.57;;;;;;;8.52;64.48;101043.94;5028997;28;20077;-57
2023/12/06 01:04:39;;;;;;;10.88;7.75;;;;;;;8.52;64.38;101043.94;5027755;28;20103;-56
2023/12/06 01:07:04;;;;;;;10.13;7.07;;;;;;;8.51;64.42;101047.56;5028448;28;20194;-56
2023/12/06 01:09:30;;;;;;;10.50;7.05;;;;;;;8.52;64.38;101057.22;5030791;28;20517;-56
2023/12/06 01:11:57;;;;;;;11.88;7.93;;;;;;;8.53;64.43;101055.41;5027722;28;20030;-56
2023/12/06 01:14:22;;;;;;;10.18;7.32;;;;;;;8.52;64.32;101057.22;5024819;28;20056;-56
2023/12/06 01:16:48;;;;;;;11.25;7.25;;;;;;;8.52;64.44;101054.56;5028683;28;20477;-56
2023/12/06 01:19:15;;;;;;;10.43;7.63;;;;;;;8.53;64.52;101061.59;5029579;28;20382;-57
2023/12/06 01:21:40;;;;;;;9.95;6.65;;;;;;;8.53;64.28;101064.25;5030896;28;20382;-56
2023/12/06 01:24:06;;;;;;;11.68;7.70;;;;;;;8.53;64.48;101066.91;5029147;28;20108;-56
2023/12/06 01:26:31;;;;;;;11.65;7.18;;;;;;;8.53;64.46;101066.91;5023617;28;20063;-56
2023/12/06 01:28:57;;;;;;;10.90;7.72;;;;;;;8.54;64.34;101068.59;5031431;28;20065;-57
2023/12/06 01:31:22;;;;;;;10.25;7.38;;;;;;;8.54;64.47;101083.69;5028406;28;20025;-56
2023/12/06 01:33:47;;;;;;;10.05;7.10;;;;;;;8.55;64.37;101077.44;5027805;28;20537;-56
2023/12/06 01:36:13;;;;;;;9.93;7.05;;;;;;;8.54;64.31;101073.91;5031316;28;20382;-57
2023/12/06 01:38:38;;;;;;;8.93;6.47;;;;;;;8.54;64.51;101087.19;5031068;28;20034;-56
2023/12/06 01:41:04;;;;;;;8.52;6.85;;;;;;;8.54;64.46;101089.84;5028032;28;20120;-57
2023/12/06 01:43:29;;;;;;;11.23;7.65;;;;;;;8.54;64.29;101092.50;5028822;28;20025;-56
2023/12/06 01:45:55;;;;;;;11.07;7.57;;;;;;;8.55;64.36;101091.56;5024416;28;20503;-56
2023/12/06 01:48:21;;;;;;;11.40;7.53;;;;;;;8.56;64.40;101103.03;5027471;28;20514;-56
2023/12/06 01:50:48;;;;;;;11.50;7.60;;;;;;;8.55;64.41;101093.38;5031121;28;20029;-56
2023/12/06 01:53:14;;;;;;;10.98;7.22;;;;;;;8.55;64.53;101093.38;5026747;28;20385;-56
2023/12/06 01:55:39;;;;;;;10.60;7.13;;;;;;;8.55;64.43;101101.34;5028881;28;20025;-57
2023/12/06 01:58:05;;;;;;;10.93;6.95;;;;;;;8.56;64.60;101101.22;5026865;28;20041;-57
2023/12/06 02:00:31;;;;;;;9.02;6.32;;;;;;;8.55;64.40;101102.19;5028773;28;20032;-56
2023/12/06 02:02:56;;;;;;;11.00;7.40;;;;;;;8.55;64.33;101107.50;5029670;28;20061;-56
2023/12/06 02:05:22;;;;;;;9.40;7.03;;;;;;;8.57;64.49;101110.94;5027858;28;20113;-56
2023/12/06 02:07:49;;;;;;;9.65;6.88;;;;;;;8.57;64.28;101108.28;5026992;28;20053;-56
2023/12/06 02:10:15;;;;;;;9.60;7.10;;;;;;;8.56;64.34;101111.84;5026757;28;20475;-56
2023/12/06 02:12:40;;;;;;;9.32;6.72;;;;;;;8.56;64.37;101119.81;5027937;28;20068;-56
2023/12/06 02:15:06;;;;;;;8.98;6.57;;;;;;;8.58;64.38;101107.31;5028614;28;20064;-56
2023/12/06 02:17:33;;;;;;;9.85;7.07;;;;;;;8.58;64.46;101114.44;5024088;28;20480;-56
2023/12/06 02:19:59;;;;;;;8.02;6.15;;;;;;;8.57;64.25;101113.59;5030596;28;20029;-57
2023/12/06 02:22:25;;;;;;;10.52;7.22;;;;;;;8.57;64.23;101116.22;5029279;28;20032;-57
2023/12/06 02:24:53;;;;;;;8.05;6.28;;;;;;;8.58;64.40;101127.69;5045778;28;20021;-57
2023/12/06 02:27:19;;;;;;;9.05;6.28;;;;;;;8.57;64.29;101113.59;5025903;28;20108;-56
2023/12/06 02:29:44;;;;;;;8.75;6.18;;;;;;;8.57;64.36;101121.53;5028148;28;20472;-56
2023/12/06 02:32:10;;;;;;;9.35;6.10;;;;;;;8.58;64.49;101115.28;5031444;28;20025;-56
2023/12/06 02:34:36;;;;;;;9.15;6.35;;;;;;;8.58;64.48;101117.09;5025540;28;20040;-57
2023/12/06 02:37:05;;;;;;;8.70;6.03;;;;;;;8.59;64.36;101117.00;5029818;28;20113;-56
2023/12/06 02:39:39;;;;;;;8.65;6.38;;;;;;;8.59;64.61;101121.47;5028630;28;20034;-57
2023/12/06 02:42:05;;;;;;;8.10;6.10;;;;;;;8.59;64.47;101124.13;5030400;28;20364;-56
2023/12/06 02:44:30;;;;;;;9.07;6.45;;;;;;;8.59;64.38;101122.31;5026715;28;20056;-57
2023/12/06 02:46:56;;;;;;;10.93;7.15;;;;;;;8.59;64.41;101119.66;5029022;28;20491;-56
2023/12/06 02:49:21;;;;;;;9.63;7.03;;;;;;;8.58;64.35;101120.59;5025818;28;20167;-57
2023/12/06 02:51:46;;;;;;;6.78;5.47;;;;;;;8.60;64.24;101120.50;5023304;28;20396;-56
2023/12/06 02:54:12;;;;;;;8.70;6.10;;;;;;;8.60;64.24;101120.50;5026884;28;20068;-56
2023/12/06 02:56:37;;;;;;;8.98;6.18;;;;;;;8.61;64.37;101124.91;5026826;28;20097;-56
2023/12/06 02:59:02;;;;;;;8.63;6.18;;;;;;;8.60;64.37;101126.69;5026373;28;20025;-56
2023/12/06 03:01:28;;;;;;;7.85;5.72;;;;;;;8.61;64.30;101123.09;5019019;28;20537;-56
2023/12/06 03:03:53;;;;;;;7.13;5.55;;;;;;;8.61;64.53;101122.25;5023767;28;20041;-56
2023/12/06 03:06:18;;;;;;;7.35;5.47;;;;;;;8.61;64.42;101125.75;5025894;28;20041;-56
2023/12/06 03:08:44;;;;;;;8.05;6.05;;;;;;;8.61;64.32;101123.09;5027085;28;20124;-56
2023/12/06 03:11:09;;;;;;;7.40;6.20;;;;;;;8.61;64.61;101123.09;5030044;28;20083;-56
2023/12/06 03:13:34;;;;;;;8.10;5.72;;;;;;;8.61;64.40;101117.78;5029781;28;20049;-56
2023/12/06 03:16:00;;;;;;;7.93;5.40;;;;;;;8.62;64.42;101121.28;5029861;28;20471;-56
2023/12/06 03:18:26;;;;;;;7.65;5.43;;;;;;;8.61;64.44;101117.78;5028835;28;20033;-56
2023/12/06 03:20:52;;;;;;;8.13;6.13;;;;;;;8.62;64.43;101126.59;5026010;28;20501;-56
2023/12/06 03:23:17;;;;;;;7.45;5.30;;;;;;;8.63;64.22;101135.44;5029911;28;20060;-56
2023/12/06 03:25:43;;;;;;;7.57;5.07;;;;;;;8.63;64.34;101140.75;5023495;28;20383;-56
2023/12/06 03:28:08;;;;;;;7.32;5.45;;;;;;;8.63;64.36;101138.94;5031709;28;20033;-57
2023/12/06 03:30:34;;;;;;;5.93;4.97;;;;;;;8.63;64.20;101141.59;5026647;28;20037;-56
2023/12/06 03:32:59;;;;;;;8.50;5.30;;;;;;;8.62;64.36;101150.50;5029501;28;20489;-56
2023/12/06 03:35:25;;;;;;;7.88;5.32;;;;;;;8.64;64.45;101147.75;5029635;28;20052;-56
2023/12/06 03:37:50;;;;;;;11.32;5.90;;;;;;;8.63;64.30;101152.22;5026627;28;20072;-57
2023/12/06 03:40:15;;;;;;;6.45;4.68;;;;;;;8.63;64.30;101144.25;5026554;28;20029;-56
2023/12/06 03:42:41;;;;;;;7.82;5.38;;;;;;;8.65;64.29;101154.81;5025158;28;20040;-57
2023/12/06 03:45:07;;;;;;;7.57;4.78;;;;;;;8.64;64.47;101153.06;5025860;28;20026;-56
2023/12/06 03:47:33;;;;;;;7.32;5.38;;;;;;;8.64;64.27;101147.75;5024936;28;20075;-56
2023/12/06 03:49:58;;;;;;;6.95;4.80;;;;;;;8.64;64.71;101153.91;5030816;28;20463;-57
2023/12/06 03:52:23;;;;;;;7.10;5.43;;;;;;;8.64;64.35;101153.91;5033457;28;20109;-56
2023/12/06 03:54:49;;;;;;;7.30;5.15;;;;;;;8.64;64.35;101159.22;5031462;28;20491;-56
2023/12/06 03:57:14;;;;;;;6.70;5.07;;;;;;;8.65;64.35;101160.13;5034138;28;20093;-56
2023/12/06 03:59:40;;;;;;;6.43;5.10;;;;;;;8.65;64.32;101165.41;5032511;28;20552;-56
2023/12/06 04:02:06;;;;;;;7.82;5.43;;;;;;;8.64;64.36;101159.22;5034148;28;20120;-56
2023/12/06 04:04:31;;;;;;;6.05;4.30;;;;;;;8.67;64.24;101166.19;5034355;28;20133;-56
2023/12/06 04:06:56;;;;;;;5.63;4.50;;;;;;;8.66;64.36;101167.13;5029221;28;20054;-57
2023/12/06 04:09:21;;;;;;;6.90;4.93;;;;;;;8.66;64.27;101161.81;5030498;28;20025;-56
2023/12/06 04:11:47;;;;;;;7.90;4.93;;;;;;;8.65;64.44;101165.41;5031229;28;20072;-56
2023/12/06 04:14:13;;;;;;;5.47;4.43;;;;;;;8.65;64.28;101168.06;5027711;28;20064;-56
2023/12/06 04:16:38;;;;;;;7.85;5.18;;;;;;;8.66;64.27;101173.28;5030248;28;20029;-56
2023/12/06 04:19:03;;;;;;;6.07;4.22;;;;;;;8.67;64.37;101174.16;5033657;28;20116;-56
2023/12/06 04:21:29;;;;;;;6.40;4.38;;;;;;;8.67;64.27;101179.47;5030100;28;20029;-56
2023/12/06 04:23:54;;;;;;;6.30;4.40;;;;;;;8.67;64.52;101179.47;5031103;28;20045;-56
2023/12/06 04:26:21;;;;;;;5.93;4.60;;;;;;;8.67;64.30;101185.63;5031244;28;20164;-56
2023/12/06 04:28:46;;;;;;;5.72;4.72;;;;;;;8.67;64.32;101180.31;5031978;28;20072;-57
2023/12/06 04:31:11;;;;;;;6.25;4.82;;;;;;;8.67;64.22;101177.66;5030659;28;20064;-56
2023/12/06 04:33:37;;;;;;;6.97;4.57;;;;;;;8.68;64.31;101186.47;5032239;28;20032;-56
2023/12/06 04:36:02;;;;;;;5.80;3.83;;;;;;;8.68;64.37;101181.16;5033355;28;20089;-56
2023/12/06 04:38:28;;;;;;;6.05;4.50;;;;;;;8.68;64.47;101183.81;5030737;28;20091;-57
2023/12/06 04:40:53;;;;;;;5.10;4.05;;;;;;;8.68;64.26;101184.72;5026391;28;20037;-57
2023/12/06 04:43:19;;;;;;;7.15;4.00;;;;;;;8.69;64.38;101188.22;5033396;28;20100;-56
2023/12/06 04:45:44;;;;;;;4.60;3.67;;;;;;;8.68;64.23;101191.78;5031836;28;20073;-56
2023/12/06 04:48:11;;;;;;;5.40;3.60;;;;;;;8.68;64.44;101191.78;5029376;28;20073;-56
2023/12/06 04:50:36;;;;;;;4.68;4.13;;;;;;;8.68;64.38;101191.78;5030966;28;20095;-56
2023/12/06 04:53:02;;;;;;;4.78;3.85;;;;;;;8.69;64.29;101194.38;5030368;28;20038;-56
2023/12/06 04:55:27;;;;;;;4.07;3.60;;;;;;;8.70;64.29;101192.56;5029625;28;20037;-57
2023/12/06 04:57:52;;;;;;;6.82;4.63;;;;;;;8.70;64.42;101195.22;5033343;28;20079;-56
2023/12/06 05:00:18;;;;;;;4.90;3.60;;;;;;;8.68;64.29;101203.28;5030522;28;20061;-57
2023/12/06 05:02:44;;;;;;;5.63;4.00;;;;;;;8.70;64.34;101206.72;5025062;28;20037;-56
2023/12/06 05:05:09;;;;;;;4.38;3.85;;;;;;;8.69;64.22;101212.94;5026246;28;20114;-56
2023/12/06 05:07:35;;;;;;;5.05;3.97;;;;;;;8.69;64.38;101212.94;5031184;28;20088;-56
2023/12/06 05:10:00;;;;;;;4.75;4.00;;;;;;;8.70;64.29;101212.03;5028141;28;20079;-56
2023/12/06 05:12:25;;;;;;;4.80;3.95;;;;;;;8.70;64.31;101217.34;5028391;28;20041;-56
2023/12/06 05:14:51;;;;;;;4.75;3.70;;;;;;;8.70;64.39;101206.72;5027695;28;20037;-56
2023/12/06 05:17:16;;;;;;;4.88;3.67;;;;;;;8.70;64.33;101211.16;5032830;28;20033;-57
2023/12/06 05:19:41;;;;;;;4.75;3.55;;;;;;;8.70;64.24;101217.34;5034011;28;20146;-56
2023/12/06 05:22:07;;;;;;;5.63;4.10;;;;;;;8.71;64.38;101218.19;5028865;28;20040;-56
2023/12/06 05:24:32;;;;;;;5.22;3.60;;;;;;;8.71;64.33;101218.19;5032527;28;20167;-56
2023/12/06 05:26:57;;;;;;;6.20;3.45;;;;;;;8.71;64.34;101218.19;5032284;28;20123;-56
2023/12/06 05:29:23;;;;;;;6.03;4.15;;;;;;;8.71;64.34;101227.00;5030301;28;20032;-56
2023/12/06 05:31:48;;;;;;;4.28;3.63;;;;;;;8.71;64.46;101229.66;5031105;28;20036;-56
2023/12/06 05:34:13;;;;;;;4.20;3.80;;;;;;;8.71;64.48;101221.69;5030500;28;20032;-56
2023/12/06 05:36:39;;;;;;;6.00;4.43;;;;;;;8.71;64.22;101227.00;5032222;28;20057;-56
2023/12/06 05:39:10;;;;;;;4.75;3.58;;;;;;;8.72;64.19;101231.41;5027766;28;20413;-57
2023/12/06 05:41:36;;;;;;;4.68;3.70;;;;;;;8.72;64.36;101227.84;5047367;28;20035;-56
2023/12/06 05:44:04;;;;;;;4.47;3.45;;;;;;;8.72;64.36;101235.81;5029494;28;20167;-56
2023/12/06 05:46:29;;;;;;;4.75;3.95;;;;;;;8.72;64.35;101235.81;5029414;28;20037;-57
2023/12/06 05:48:54;;;;;;;5.47;3.95;;;;;;;8.72;64.40;101234.06;5027222;28;20368;-56
2023/12/06 05:51:20;;;;;;;5.07;3.95;;;;;;;8.73;64.34;101242.88;5031725;28;20454;-57
2023/12/06 05:53:45;;;;;;;4.15;3.40;;;;;;;8.72;64.20;101236.72;5030037;28;20704;-57
2023/12/06 05:56:10;;;;;;;4.57;3.67;;;;;;;8.73;64.29;101242.88;5028040;28;20026;-56
2023/12/06 05:58:36;;;;;;;5.38;3.97;;;;;;;8.73;64.25;101232.25;5030209;28;20035;-56
2023/12/06 06:01:02;;;;;;;4.97;3.90;;;;;;;8.72;64.43;101242.03;5024671;28;20116;-56
2023/12/06 06:03:27;;;;;;;5.18;3.75;;;;;;;8.73;64.36;101242.88;5030134;28;20029;-56
2023/12/06 06:05:53;;;;;;;5.03;3.92;;;;;;;8.74;64.33;101249.91;5031550;28;20112;-56
2023/12/06 06:08:18;;;;;;;4.45;3.60;;;;;;;8.73;64.31;101243.72;5027734;28;20053;-56
2023/12/06 06:10:43;;;;;;;7.85;4.20;;;;;;;8.75;64.44;101248.97;5028166;28;20021;-56
2023/12/06 06:13:09;;;;;;;4.40;3.42;;;;;;;8.75;64.31;101243.66;5031339;28;20043;-56
2023/12/06 06:15:35;;;;;;;5.43;4.32;;;;;;;8.75;64.39;101246.31;5028498;28;20032;-57
2023/12/06 06:18:00;;;;;;;4.80;3.55;;;;;;;8.75;64.24;101248.97;5028450;28;20033;-56
2023/12/06 06:20:26;;;;;;;3.85;3.33;;;;;;;8.75;64.42;101260.44;5031516;28;20033;-56
2023/12/06 06:22:51;;;;;;;5.10;3.97;;;;;;;8.75;64.21;101263.09;5025414;28;20079;-56
2023/12/06 06:25:16;;;;;;;5.53;3.30;;;;;;;8.75;64.27;101268.38;5029922;28;20056;-56
2023/12/06 06:27:42;;;;;;;4.85;3.65;;;;;;;8.76;64.47;101269.28;5031106;28;20065;-56
2023/12/06 06:30:10;;;;;;;4.15;3.67;;;;;;;8.76;64.29;101274.59;5027735;28;20037;-56
2023/12/06 06:32:35;;;;;;;5.50;4.00;;;;;;;8.76;64.44;101266.63;5028428;28;20034;-57
2023/12/06 06:35:01;;;;;;;5.00;3.63;;;;;;;8.75;64.38;101279.00;5029572;28;20060;-56
2023/12/06 06:37:27;;;;;;;4.20;3.80;;;;;;;8.77;64.31;101281.59;5027456;28;20116;-56
2023/12/06 06:39:52;;;;;;;4.82;3.75;;;;;;;8.76;64.23;101286.06;5025308;28;20041;-56
2023/12/06 06:42:18;;;;;;;6.10;4.07;;;;;;;8.76;64.39;101279.91;5026284;28;20029;-57
2023/12/06 06:44:44;;;;;;;4.32;3.38;;;;;;;8.76;64.33;101282.56;5026000;28;20426;-56
2023/12/06 06:47:10;;;;;;;4.30;3.60;;;;;;;8.78;64.22;101288.63;5027363;28;20034;-56
2023/12/06 06:49:39;;;;;;;3.95;3.58;;;;;;;8.77;64.44;101289.56;5026072;28;20083;-57
2023/12/06 06:52:05;;;;;;;5.15;3.67;;;;;;;8.78;64.31;101293.94;5030073;28;20029;-56
2023/12/06 06:54:30;;;;;;;4.43;3.67;;;;;;;8.78;64.49;101300.13;5027885;28;20037;-56
2023/12/06 06:56:55;;;;;;;4.03;3.45;;;;;;;8.78;64.42;101299.25;5030944;28;20432;-56
2023/12/06 06:59:21;;;;;;;5.30;3.50;;;;;;;8.78;64.43;101293.94;5026629;28;20044;-56
2023/12/06 07:01:46;;;;;;;4.72;3.47;;;;;;;8.78;64.33;101304.56;5031154;28;20025;-56
2023/12/06 07:04:13;;;;;;;3.67;3.17;;;;;;;8.78;64.47;101304.56;5045643;28;20057;-56
2023/12/06 07:06:39;;;;;;;3.17;2.80;;;;;;;8.78;64.36;101301.91;5029763;28;20483;-57
2023/12/06 07:09:04;;;;;;;5.05;3.85;;;;;;;8.78;64.47;101305.41;5025866;28;20068;-56
2023/12/06 07:11:30;;;;;;;4.10;3.60;;;;;;;8.79;64.43;101298.31;5028844;28;20163;-56
2023/12/06 07:13:55;;;;;;;5.50;3.60;;;;;;;8.79;64.40;101306.28;5027141;28;20404;-56
2023/12/06 07:16:21;;;;;;;3.85;3.20;;;;;;;8.78;64.36;101308.06;5027280;28;20195;-56
2023/12/06 07:18:49;;;;;;;3.47;2.92;;;;;;;8.79;64.46;101306.28;5027598;28;20049;-56
2023/12/06 07:21:14;;;;;;;4.40;3.60;;;;;;;8.79;64.22;101309.78;5025687;28;20153;-57
2023/12/06 07:23:40;;;;;;;3.65;3.25;;;;;;;8.79;64.46;101311.59;5030033;28;20041;-56
2023/12/06 07:26:08;;;;;;;3.83;3.08;;;;;;;8.79;64.50;101314.25;5031116;28;20057;-56
2023/12/06 07:28:34;;;;;;;4.50;3.28;;;;;;;8.79;64.29;101316.91;5034118;28;20025;-56
2023/12/06 07:30:59;;;;;;;6.68;4.05;;;;;;;8.80;64.40;101318.63;5030539;28;20542;-57
2023/12/06 07:33:26;;;;;;;4.32;3.50;;;;;;;8.80;64.24;101315.97;5029736;28;20083;-57
2023/12/06 07:35:51;;;;;;;4.70;3.30;;;;;;;8.80;64.40;101308.00;5029652;28;20041;-56
2023/12/06 07:38:17;;;;;;;4.18;3.03;;;;;;;8.81;64.56;101325.66;5032663;28;20041;-57
2023/12/06 07:40:42;;;;;;;3.50;3.03;;;;;;;8.82;64.23;101332.69;5030571;28;20026;-57
2023/12/06 07:43:07;;;;;;;3.85;3.47;;;;;;;8.82;64.32;101331.84;5029311;28;20029;-57
2023/12/06 07:45:33;;;;;;;4.13;3.38;;;;;;;8.83;64.45;101341.50;5027567;28;20392;-57
2023/12/06 07:47:58;;;;;;;4.80;3.25;;;;;;;8.82;64.41;101338.00;5033755;28;20116;-57
2023/12/06 07:50:25;;;;;;;3.53;2.92;;;;;;;8.81;64.39;101341.56;5028119;28;20034;-57
2023/12/06 07:52:50;;;;;;;4.63;3.20;;;;;;;8.84;64.39;101338.78;5036285;28;20041;-57
2023/12/06 07:55:16;;;;;;;4.90;3.00;;;;;;;8.83;64.56;101334.38;5033004;28;20026;-57
2023/12/06 07:57:42;;;;;;;4.97;3.35;;;;;;;8.84;64.37;101335.28;5033690;28;20052;-57
2023/12/06 08:00:11;;;;;;;3.63;3.00;;;;;;;8.83;64.52;101346.81;5032464;28;20345;-57
2023/12/06 08:02:39;;;;;;;3.97;3.30;;;;;;;8.83;64.53;101355.63;5028573;28;20483;-57
2023/12/06 08:05:06;;;;;;;3.45;3.10;;;;;;;8.84;64.29;101351.22;5028739;28;20038;-56
2023/12/06 08:07:32;;;;;;;4.43;3.55;;;;;;;8.84;64.47;101351.22;5032799;28;20128;-57
2023/12/06 08:09:58;;;;;;;6.13;3.90;;;;;;;8.84;64.48;101354.72;5029304;28;20136;-57
2023/12/06 08:12:23;;;;;;;4.55;2.97;;;;;;;8.85;64.35;101351.09;5032561;28;20037;-57
2023/12/06 08:14:48;;;;;;;5.28;3.30;;;;;;;8.85;64.45;101358.22;5028345;28;20360;-57
2023/12/06 08:17:14;;;;;;;3.92;3.13;;;;;;;8.85;64.57;101367.03;5029945;28;20059;-57
2023/12/06 08:19:39;;;;;;;4.25;3.47;;;;;;;8.86;64.37;101368.78;5031634;28;20121;-57
2023/12/06 08:22:04;;;;;;;4.85;3.20;;;;;;;8.85;64.36;101369.69;5029345;28;20029;-56
2023/12/06 08:24:30;;;;;;;5.63;3.72;;;;;;;8.87;64.33;101380.25;5030058;28;20037;-57
2023/12/06 08:26:55;;;;;;;5.72;3.38;;;;;;;8.87;64.23;101373.16;5029936;28;20077;-56
2023/12/06 08:29:21;;;;;;;4.55;3.50;;;;;;;8.87;64.46;101381.13;5029758;28;20030;-57
2023/12/06 08:31:46;;;;;;;4.78;3.42;;;;;;;8.87;64.31;101380.25;5029894;28;20045;-56
2023/12/06 08:34:12;;;;;;;4.10;3.30;;;;;;;8.86;64.46;101379.41;5030141;28;20033;-56
2023/12/06 08:36:37;;;;;;;6.10;3.85;;;;;;;8.87;64.58;101375.81;5030639;28;20033;-57
2023/12/06 08:39:03;;;;;;;5.53;3.85;;;;;;;8.86;64.30;101382.03;5024580;28;20152;-58
2023/12/06 08:41:28;;;;;;;4.32;3.33;;;;;;;8.88;64.50;101385.50;5000648;28;20087;-57
2023/12/06 08:43:54;;;;;;;3.40;3.10;;;;;;;8.89;65.92;101386.34;5008177;28;20480;-50
2023/12/06 08:46:20;;;;;;;3.95;3.20;;;;;;;8.92;67.21;101388.88;5008560;28;20081;-52
2023/12/06 08:48:45;;;;;;;4.65;3.17;;;;;;;8.94;67.85;101385.19;5011308;28;20033;-51
2023/12/06 08:51:11;;;;;;;8.00;3.58;;;;;;;8.99;67.99;101393.81;5005222;28;20037;-50
2023/12/06 08:53:36;;;;;;;6.47;3.25;;;;;;;9.04;67.93;101403.34;5006885;28;20115;-53
2023/12/06 08:56:02;;;;;;;4.45;3.33;;;;;;;9.08;68.29;101399.59;5010310;28;20052;-60
2023/12/06 08:58:27;;;;;;;4.43;3.20;;;;;;;9.09;67.93;101393.34;5009598;28;20121;-69
2023/12/06 10:31:42;;;;;;;5.05;3.58;;;;;;;8.68;69.60;101457.25;5102779;27;20461;-60
2023/12/06 10:34:08;;;;;;;4.65;2.70;;;;;;;8.70;70.00;101450.97;5090059;28;20031;-58
2023/12/06 10:36:36;;;;;;;7.40;3.20;;;;;;;8.74;69.91;101451.69;5086688;28;20032;-58
2023/12/06 10:39:04;;;;;;;6.18;3.92;;;;;;;8.75;70.16;101456.03;5085940;28;20047;-58
2023/12/06 10:41:32;;;;;;;4.10;2.85;;;;;;;8.78;70.07;101461.22;5091659;28;20038;-58
2023/12/06 10:44:01;;;;;;;4.22;2.92;;;;;;;8.82;70.03;101459.28;5086685;28;20511;-58
2023/12/06 10:46:26;;;;;;;10.75;3.47;;;;;;;8.85;70.24;101470.59;5089173;28;20031;-58
2023/12/06 10:48:53;;;;;;;6.97;3.35;;;;;;;8.87;70.16;101460.78;5091098;28;20040;-58
2023/12/06 10:51:19;;;;;;;4.22;2.85;;;;;;;8.90;70.26;101460.63;5087229;28;20043;-58
2023/12/06 10:53:46;;;;;;;5.00;3.25;;;;;;;8.92;70.16;101458.75;5085048;28;20109;-59
2023/12/06 10:56:14;;;;;;;4.45;2.92;;;;;;;8.96;70.18;101451.50;5090305;28;20032;-58
2023/12/06 10:58:40;;;;;;;5.20;3.45;;;;;;;8.98;70.02;101455.81;5089055;28;20032;-58
2023/12/06 11:01:08;;;;;;;5.95;3.20;;;;;;;9.02;70.06;101455.69;5087064;28;20512;-58
2023/12/06 11:03:33;;;;;;;3.85;2.95;;;;;;;9.04;69.87;101453.81;5086283;28;20123;-58
2023/12/06 11:06:07;;;;;;;3.83;2.67;;;;;;;9.05;70.01;101456.41;5087452;28;20115;-58
2023/12/06 11:08:57;;;;;;;5.50;3.22;;;;;;;9.09;69.75;101451.78;5090730;28;20036;-58
2023/12/06 11:11:41;;;;;;;4.63;3.25;;;;;;;9.11;69.41;101455.25;5084120;28;20646;-58
2023/12/06 11:14:37;;;;;;;3.92;2.92;;;;;;;9.13;69.70;101453.38;5085642;28;20093;-58
2023/12/06 11:17:24;;;;;;;5.63;3.58;;;;;;;9.15;69.75;101459.47;5089088;28;20061;-58
2023/12/06 11:19:49;;;;;;;3.47;2.90;;;;;;;9.16;69.82;101458.53;5078202;28;20053;-58
2023/12/06 11:22:15;;;;;;;4.35;2.95;;;;;;;9.18;69.89;101451.38;5080500;28;20062;-58
2023/12/06 11:24:42;;;;;;;4.50;3.25;;;;;;;9.20;69.74;101457.47;5084211;28;20029;-58
2023/12/06 11:27:07;;;;;;;3.80;3.30;;;;;;;9.22;69.64;101457.38;5082089;28;20052;-58
2023/12/06 11:29:33;;;;;;;6.40;2.95;;;;;;;9.25;70.00;101451.91;5080210;28;20048;-58
2023/12/06 11:32:00;;;;;;;3.33;2.42;;;;;;;9.27;69.65;101450.91;5088168;28;20054;-58
2023/12/06 11:34:36;;;;;;;5.53;3.63;;;;;;;9.30;69.45;101449.91;5085304;28;20607;-58
2023/12/06 11:37:06;;;;;;;6.15;2.95;;;;;;;9.29;69.31;101454.34;5085078;28;20040;-58
2023/12/06 11:39:32;;;;;;;3.85;2.85;;;;;;;9.30;69.44;101456.06;5073588;28;20135;-59
2023/12/06 11:41:59;;;;;;;4.68;3.20;;;;;;;9.32;69.57;101454.19;5069952;28;20483;-58
2023/12/06 11:44:25;;;;;;;4.43;2.95;;;;;;;9.32;69.65;101459.50;5041230;28;20067;-58
2023/12/06 11:46:55;;;;;;;3.58;3.15;;;;;;;9.32;69.74;101456.84;5046932;28;20112;-58
2023/12/06 11:49:25;;;;;;;4.15;2.97;;;;;;;9.32;69.72;101459.50;5050954;28;20039;-58
2023/12/06 11:51:57;;;;;;;5.07;3.03;;;;;;;9.34;69.72;101470.91;5048698;28;20469;-58
2023/12/06 11:54:23;;;;;;;3.88;2.90;;;;;;;9.34;69.72;101468.25;5053118;28;20055;-58
2023/12/06 11:56:48;;;;;;;5.15;3.10;;;;;;;9.34;69.76;101462.94;5047591;28;20060;-58
2023/12/06 11:59:14;;;;;;;4.70;3.20;;;;;;;9.35;69.80;101459.38;5049457;28;20040;-58
2023/12/06 12:01:40;;;;;;;4.40;2.75;;;;;;;9.36;69.93;101460.22;5042450;28;20037;-58
2023/12/06 12:04:06;;;;;;;3.42;2.80;;;;;;;9.36;69.79;101466.38;5044281;28;20123;-58
2023/12/06 12:06:31;;;;;;;3.47;2.60;;;;;;;9.36;69.85;101461.06;5048996;28;20116;-58
2023/12/06 12:08:58;;;;;;;4.22;3.00;;;;;;;9.38;69.80;101469.81;5051007;28;20091;-58
2023/12/06 12:11:23;;;;;;;3.65;2.97;;;;;;;9.38;69.60;101469.81;5051572;28;20048;-58
2023/12/06 12:13:49;;;;;;;5.25;2.80;;;;;;;9.39;70.55;101470.72;5048706;28;20033;-59
2023/12/06 12:16:16;;;;;;;4.18;2.88;;;;;;;9.41;70.32;101481.28;5052012;28;20112;-58
2023/12/06 12:18:42;;;;;;;6.90;3.00;;;;;;;9.41;70.04;101474.16;5052290;28;20033;-58
2023/12/06 12:21:10;;;;;;;5.13;2.80;;;;;;;9.42;70.21;101467.03;5049591;28;20148;-58
2023/12/06 12:23:36;;;;;;;6.40;3.25;;;;;;;9.43;70.22;101471.44;5051124;28;20037;-58
2023/12/06 12:26:02;;;;;;;3.75;3.30;;;;;;;9.43;69.63;101468.78;5049381;28;20517;-59
2023/12/06 12:28:27;;;;;;;4.50;2.75;;;;;;;9.44;70.05;101467.81;5052741;28;20040;-58
2023/12/06 12:30:58;;;;;;;3.25;2.80;;;;;;;9.44;70.07;101470.47;5042052;28;20049;-58
2023/12/06 12:33:23;;;;;;;3.75;2.92;;;;;;;9.43;70.19;101464.31;5052757;28;20035;-59
2023/12/06 12:35:50;;;;;;;4.10;2.90;;;;;;;9.44;70.28;101462.50;5045746;28;20028;-58
2023/12/06 12:38:16;;;;;;;4.55;3.20;;;;;;;9.44;70.42;101465.16;5051423;28;20036;-58
2023/12/06 12:40:43;;;;;;;4.88;2.92;;;;;;;9.46;70.22;101465.94;5048790;28;20021;-58
2023/12/06 12:43:10;;;;;;;3.38;2.55;;;;;;;9.44;70.33;101455.38;5053288;28;20478;-58
2023/12/06 12:45:37;;;;;;;3.15;2.75;;;;;;;9.46;70.33;101465.94;5042565;28;20025;-58
2023/12/06 12:48:03;;;;;;;4.03;3.08;;;;;;;9.46;70.28;101465.94;5046199;28;20431;-58
2023/12/06 12:50:30;;;;;;;3.10;2.70;;;;;;;9.46;70.85;101465.94;5048282;28;20493;-58
2023/12/06 12:52:56;;;;;;;3.65;3.20;;;;;;;9.48;70.46;101466.72;5044049;28;20032;-58
2023/12/06 12:55:22;;;;;;;4.55;3.20;;;;;;;9.46;70.36;101465.94;5045601;28;20090;-58
2023/12/06 12:57:51;;;;;;;4.43;3.08;;;;;;;9.48;70.12;101461.41;5047574;28;20073;-59